Andahuayla, Peru

7:16 AM PET on October 01, 2014 (GMT -0500)
Andahuaylas | Change Station
CLOSE
Current Station
Airport
Location: Andahuayla,
Elevation: 11299 ft
Nearby Weather Stations

Elev 11299 ft 13.71 °S, 73.35 °W | Updated 16 minutes ago

Mostly Cloudy
Mostly Cloudy
43 °F
Feels Like 39 °F
N
6
Wind Variable Wind from North

Today
High -- | Low -- °F
--% Chance of Precip.
Yesterday
High -- | Low -- °F
Precip. -- in
5:36 AM 5:49 PM
Waxing Crescent, 47% visible
Pressure 30.57 in
Visibility 6.2 miles
Clouds Scattered Clouds 1400 ft
Mostly Cloudy 5000 ft
Windchill 39 °F
Dew Point 23 °F
Humidity 46%
Rainfall 0.00 in
Snow Depth Not available.
UV 1 out of 12
Pollen Not available.
Air Quality Not available.
Flu Activity Not available.
METAR SPHY 011200Z 01005KT 9999 SCT014 BKN050 06/M05 Q1035 RMK TMAX 15.0 30/09 PP000

More Conditions Fewer Conditions

Pressure 30.57 in
Visibility 6.2 miles
Clouds Scattered Clouds 1400 ft
Mostly Cloudy 5000 ft
Windchill 39 °F
Dew Point 23 °F
Humidity 46%
Rainfall 0.00 in
Snow Depth Not available.
UV 1 out of 12
Pollen Not available.
Air Quality Not available.
Flu Activity Not available.
METAR SPHY 011200Z 01005KT 9999 SCT014 BKN050 06/M05 Q1035 RMK TMAX 15.0 30/09 PP000

More Conditions Fewer Conditions

10-Day Weather Forecast

Almanac

Astronomy

Oct. 01, 2014 Rise Set
Actual Time 5:36 AM PET 5:49 PM PET
Civil Twilight 5:15 AM PET 6:11 PM PET
Nautical Twilight 4:50 AM PET 6:35 PM PET
Astronomical Twilight 4:25 AM PET 7:00 PM PET
Moon 11:23 AM PET No Moon Set
Length of Visible Light 12h 55m
Length of Day
12h 13m
Tomorrow will be 0m 45s longer.
Waxing Crescent, 47% of the Moon is Illuminated
Today
Waxing Crescent
Oct 1
First Quarter
Oct 8
Full
Oct 15
Last Quarter
Oct 23
New

Yesterday's Extremes

Country Highs Country Lows

Community

WunderPhotos

Upload Photos

1,757,914 photos uploaded!

Nearby

Snow Depth

Not available.

Earthquake Activity

City Distance Mag. Time & Date
No recent earthquake activity has been reported nearby.
Minimum magnitude displayed is 2.5.

Coastal Water Temperatures

Place Temperature
No Stations Reporting

Nearby Weather Stations